createdAt,value
2023-05-18T00:01:32.343Z,100296.54
2023-05-18T00:03:59.529Z,100296.10
2023-05-18T00:06:28.141Z,100301.20
2023-05-18T00:08:55.233Z,100298.52
2023-05-18T00:11:22.383Z,100296.64
2023-05-18T00:13:49.638Z,100297.73
2023-05-18T00:16:16.934Z,100301.02
2023-05-18T00:18:45.510Z,100297.34
2023-05-18T00:21:13.600Z,100294.34
2023-05-18T00:23:40.956Z,100289.81
2023-05-18T00:26:08.076Z,100284.04
2023-05-18T00:28:35.226Z,100278.00
2023-05-18T00:31:02.345Z,100275.42
2023-05-18T00:33:29.473Z,100277.33
2023-05-18T00:35:57.718Z,100279.91
2023-05-18T00:38:25.018Z,100272.02
2023-05-18T00:40:52.225Z,100273.48
2023-05-18T00:43:19.361Z,100270.83
2023-05-18T00:45:46.598Z,100273.02
2023-05-18T00:48:14.211Z,100271.73
2023-05-18T00:50:41.503Z,100271.62
2023-05-18T00:53:10.882Z,100269.15
2023-05-18T00:55:38.061Z,100272.92
2023-05-18T00:58:07.316Z,100275.36
2023-05-18T01:00:37.935Z,100274.58
2023-05-18T01:03:05.488Z,100270.84
2023-05-18T01:05:32.914Z,100266.74
2023-05-18T01:08:03.281Z,100266.70
2023-05-18T01:10:33.945Z,100266.42
2023-05-18T01:13:10.078Z,100268.20
2023-05-18T01:15:39.842Z,100276.16
2023-05-18T01:18:16.626Z,100278.11
2023-05-18T01:20:46.171Z,100278.55
2023-05-18T01:23:25.655Z,100279.56
2023-05-18T01:25:55.787Z,100279.83
2023-05-18T01:28:30.384Z,100275.73
2023-05-18T01:30:58.747Z,100278.45
2023-05-18T01:33:26.070Z,100279.80
2023-05-18T01:35:53.681Z,100280.95
2023-05-18T01:38:24.638Z,100285.54
2023-05-18T01:41:07.003Z,100288.88
2023-05-18T01:43:38.174Z,100289.84
2023-05-18T01:46:13.587Z,100291.59
2023-05-18T01:48:48.117Z,100293.27
2023-05-18T01:51:20.681Z,100293.16
2023-05-18T01:53:59.485Z,100293.77
2023-05-18T01:56:28.156Z,100294.32
2023-05-18T01:58:55.542Z,100296.21
2023-05-18T02:01:24.315Z,100297.52
2023-05-18T02:03:51.843Z,100300.41
2023-05-18T02:06:19.051Z,100305.08
2023-05-18T02:08:46.375Z,100302.05
2023-05-18T02:11:13.530Z,100300.83
2023-05-18T02:13:41.149Z,100297.02
2023-05-18T02:16:08.579Z,100297.68
2023-05-18T02:18:36.705Z,100298.55
2023-05-18T02:21:04.456Z,100299.79
2023-05-18T02:23:32.276Z,100302.54
2023-05-18T02:25:59.460Z,100301.05
2023-05-18T02:28:26.659Z,100306.41
2023-05-18T02:30:53.887Z,100304.91
2023-05-18T02:33:26.583Z,100299.61
2023-05-18T02:35:54.453Z,100296.27
2023-05-18T02:38:21.986Z,100296.59
2023-05-18T02:40:49.126Z,100298.06
2023-05-18T02:43:17.438Z,100301.53
2023-05-18T02:45:45.594Z,100295.77
2023-05-18T02:48:12.742Z,100300.70
2023-05-18T02:50:39.930Z,100300.02
2023-05-18T02:53:07.258Z,100297.84
2023-05-18T02:55:34.516Z,100295.40
2023-05-18T02:58:10.714Z,100296.99
2023-05-18T03:00:50.409Z,100296.30
2023-05-18T03:03:17.809Z,100299.41
2023-05-18T03:05:45.103Z,100297.89
2023-05-18T03:08:12.175Z,100296.08
2023-05-18T03:10:39.422Z,100294.15
2023-05-18T03:13:06.498Z,100290.48
2023-05-18T03:15:33.561Z,100286.02
2023-05-18T03:18:00.864Z,100285.98
2023-05-18T03:20:30.079Z,100291.40
2023-05-18T03:22:57.875Z,100295.65
2023-05-18T03:25:25.859Z,100298.56
2023-05-18T03:27:53.378Z,100300.61
2023-05-18T03:30:20.732Z,100302.98
2023-05-18T03:32:48.469Z,100299.27
2023-05-18T03:35:16.962Z,100301.78
2023-05-18T03:37:44.000Z,100299.60
2023-05-18T03:40:16.489Z,100297.48
2023-05-18T03:42:44.531Z,100302.55
2023-05-18T03:45:12.534Z,100299.40
2023-05-18T03:47:40.421Z,100298.10
2023-05-18T03:50:08.444Z,100302.83
2023-05-18T03:52:36.448Z,100295.43
2023-05-18T03:55:04.814Z,100293.67
2023-05-18T03:57:32.479Z,100294.14
2023-05-18T04:00:01.138Z,100297.05
2023-05-18T04:02:30.172Z,100293.98
2023-05-18T04:04:58.232Z,100293.38
2023-05-18T04:07:27.666Z,100295.52
2023-05-18T04:10:03.101Z,100295.25
2023-05-18T04:12:30.155Z,100300.21
2023-05-18T04:14:57.284Z,100294.94
2023-05-18T04:17:24.418Z,100294.41
2023-05-18T04:19:52.383Z,100294.20
2023-05-18T04:22:19.477Z,100293.41
2023-05-18T04:24:47.762Z,100291.60
2023-05-18T04:27:15.515Z,100291.20
2023-05-18T04:29:44.107Z,100287.66
2023-05-18T04:32:11.530Z,100289.98
2023-05-18T04:34:39.314Z,100291.55
2023-05-18T04:37:07.059Z,100294.18
2023-05-18T04:39:39.697Z,100293.72
2023-05-18T04:42:10.723Z,100296.17
2023-05-18T04:44:39.288Z,100294.40
2023-05-18T04:47:08.841Z,100292.77
2023-05-18T04:49:36.630Z,100295.65
2023-05-18T04:52:06.828Z,100296.30
2023-05-18T04:54:33.957Z,100293.90
2023-05-18T04:57:02.377Z,100287.81
2023-05-18T04:59:29.567Z,100288.65
2023-05-18T05:01:56.801Z,100283.90
2023-05-18T05:04:25.104Z,100285.97
2023-05-18T05:06:52.197Z,100286.64
2023-05-18T05:09:19.340Z,100279.42
2023-05-18T05:11:46.617Z,100280.61
2023-05-18T05:14:13.726Z,100290.92
2023-05-18T05:16:41.446Z,100289.51
2023-05-18T05:19:08.585Z,100289.13
2023-05-18T05:21:36.550Z,100288.96
2023-05-18T05:24:06.296Z,100292.05
2023-05-18T05:26:33.704Z,100287.80
2023-05-18T05:29:00.889Z,100286.80
2023-05-18T05:31:29.894Z,100286.92
2023-05-18T05:33:57.047Z,100284.27
2023-05-18T05:36:24.504Z,100285.19
2023-05-18T05:38:52.124Z,100287.84
2023-05-18T05:41:20.160Z,100283.20
2023-05-18T05:43:47.368Z,100285.87
2023-05-18T05:46:14.599Z,100287.45
2023-05-18T05:48:41.876Z,100290.36
2023-05-18T05:51:09.427Z,100287.14
2023-05-18T05:53:36.489Z,100288.16
2023-05-18T05:56:04.061Z,100287.73
2023-05-18T05:58:33.380Z,100285.89
2023-05-18T06:01:00.599Z,100285.97
2023-05-18T06:03:29.597Z,100287.21
2023-05-18T06:06:00.068Z,100287.23
2023-05-18T06:08:29.014Z,100284.99
2023-05-18T06:10:57.359Z,100282.08
2023-05-18T06:13:25.215Z,100285.09
2023-05-18T06:15:55.330Z,100286.48
2023-05-18T06:18:23.454Z,100286.73
2023-05-18T06:20:51.523Z,100286.86
2023-05-18T06:23:24.030Z,100286.38
2023-05-18T06:26:11.610Z,100282.77
2023-05-18T06:28:41.951Z,100281.85
2023-05-18T06:31:30.262Z,100283.45
2023-05-18T06:34:20.941Z,100286.06
2023-05-18T06:36:48.057Z,100284.79
2023-05-18T06:39:16.368Z,100279.52
2023-05-18T06:41:45.859Z,100284.20
2023-05-18T06:44:20.218Z,100278.02
2023-05-18T06:47:07.943Z,100276.57
2023-05-18T06:49:35.278Z,100278.94
2023-05-18T06:52:02.836Z,100273.64
2023-05-18T06:54:30.994Z,100275.27
2023-05-18T06:56:59.283Z,100279.34
2023-05-18T06:59:26.496Z,100278.20
2023-05-18T07:01:54.132Z,100274.55
2023-05-18T07:04:21.499Z,100276.69
2023-05-18T07:06:49.289Z,100280.89
2023-05-18T07:09:16.793Z,100282.29
2023-05-18T07:11:45.693Z,100279.41
2023-05-18T07:14:12.767Z,100279.70
2023-05-18T07:16:40.039Z,100280.77
2023-05-18T07:19:07.310Z,100284.40
2023-05-18T07:21:34.738Z,100280.61
2023-05-18T07:24:01.934Z,100284.54
2023-05-18T07:26:29.907Z,100278.45
2023-05-18T07:28:57.098Z,100276.02
2023-05-18T11:57:58.906Z,100143.29
2023-05-18T12:00:26.168Z,100145.59
2023-05-18T12:02:57.428Z,100146.84
2023-05-18T12:05:24.873Z,100151.33
2023-05-18T12:07:55.477Z,100147.98
2023-05-18T12:10:24.410Z,100139.66
2023-05-18T12:12:53.228Z,100139.58
2023-05-18T12:15:24.817Z,100132.02
2023-05-18T12:17:52.383Z,100132.44
2023-05-18T12:20:22.248Z,100133.45
2023-05-18T12:22:53.255Z,100130.04
2023-05-18T12:25:23.429Z,100132.13
2023-05-18T12:27:53.093Z,100130.88
2023-05-18T12:30:22.799Z,100127.74
2023-05-18T12:34:04.479Z,100127.77
2023-05-18T12:36:33.933Z,100128.71
2023-05-18T12:39:02.746Z,100126.11
2023-05-18T12:41:30.148Z,100130.30
2023-05-18T12:43:58.657Z,100132.89
2023-05-18T12:46:26.082Z,100136.58
2023-05-18T12:49:04.651Z,100139.38
2023-05-18T12:51:37.637Z,100141.33
2023-05-18T12:54:07.835Z,100147.39
2023-05-18T12:56:52.176Z,100142.10
2023-05-18T12:59:22.609Z,100143.27
2023-05-18T13:01:49.878Z,100142.98
2023-05-18T13:04:17.203Z,100138.79
2023-05-18T13:06:44.676Z,100140.98
2023-05-18T13:09:16.389Z,100138.95
2023-05-18T13:11:51.990Z,100141.03
2023-05-18T13:14:27.380Z,100143.45
2023-05-18T13:16:55.554Z,100145.52
2023-05-18T13:19:22.750Z,100142.09
2023-05-18T13:21:56.662Z,100143.02
2023-05-18T13:24:23.741Z,100141.91
2023-05-18T13:26:51.276Z,100141.35
2023-05-18T13:29:18.446Z,100139.23
2023-05-18T13:31:46.107Z,100135.83
2023-05-18T13:34:13.256Z,100131.27
2023-05-18T13:36:40.391Z,100126.77
2023-05-18T13:39:07.576Z,100129.46
2023-05-18T13:41:36.734Z,100127.82
2023-05-18T13:44:04.093Z,100128.59
2023-05-18T13:46:31.834Z,100125.17
2023-05-18T13:48:58.906Z,100129.13
2023-05-18T13:51:26.003Z,100129.48
2023-05-18T13:53:53.148Z,100132.86
2023-05-18T13:56:20.242Z,100126.77
2023-05-18T13:58:47.618Z,100121.77
2023-05-18T14:01:14.785Z,100124.88
2023-05-18T14:03:41.927Z,100123.79
2023-05-18T14:06:09.252Z,100126.09
2023-05-18T14:08:36.291Z,100126.08
2023-05-18T14:11:03.322Z,100129.44
2023-05-18T14:13:30.368Z,100129.55
2023-05-18T14:15:57.718Z,100127.06
2023-05-18T14:18:24.817Z,100128.80
2023-05-18T14:20:51.944Z,100127.98
2023-05-18T14:23:19.060Z,100124.24
2023-05-18T14:25:46.209Z,100123.41
2023-05-18T14:28:13.701Z,100121.84
2023-05-18T14:30:40.955Z,100119.45
2023-05-18T14:33:08.182Z,100120.55
2023-05-18T14:35:35.395Z,100115.77
2023-05-18T14:38:03.209Z,100116.24
2023-05-18T14:40:30.537Z,100117.92
2023-05-18T14:42:57.851Z,100122.52
2023-05-18T14:45:25.061Z,100119.21
2023-05-18T14:47:52.181Z,100118.90
2023-05-18T14:50:19.262Z,100116.80
2023-05-18T14:52:46.402Z,100118.09
2023-05-18T14:55:13.447Z,100123.46
2023-05-18T14:57:40.620Z,100122.97
2023-05-18T15:00:09.250Z,100118.84
2023-05-18T15:02:36.548Z,100116.84
2023-05-18T15:05:03.946Z,100116.30
2023-05-18T15:07:31.291Z,100118.27
2023-05-18T15:09:58.417Z,100117.16
2023-05-18T15:12:25.478Z,100120.05
2023-05-18T15:14:52.617Z,100117.52
2023-05-18T15:17:20.574Z,100118.32
2023-05-18T15:19:48.036Z,100117.73
2023-05-18T15:22:15.140Z,100120.17
2023-05-18T15:24:42.469Z,100121.73
2023-05-18T15:27:10.760Z,100123.53
2023-05-18T15:29:37.913Z,100118.89
2023-05-18T15:32:05.522Z,100113.61
2023-05-18T15:34:33.680Z,100117.36
2023-05-18T15:37:01.491Z,100114.47
2023-05-18T15:39:29.029Z,100115.94
2023-05-18T15:41:56.609Z,100118.45
2023-05-18T15:44:23.722Z,100117.59
2023-05-18T15:46:50.923Z,100111.61
2023-05-18T15:49:18.972Z,100112.79
2023-05-18T15:51:46.095Z,100112.08
2023-05-18T15:54:13.178Z,100113.64
2023-05-18T15:56:40.360Z,100115.41
2023-05-18T15:59:08.806Z,100116.20
2023-05-18T16:01:36.594Z,100117.63
2023-05-18T16:04:03.704Z,100118.63
2023-05-18T16:06:30.851Z,100120.66
2023-05-18T16:08:57.965Z,100117.88
2023-05-18T16:11:25.078Z,100122.18
2023-05-18T16:13:56.939Z,100125.94
2023-05-18T16:16:25.583Z,100129.31
2023-05-18T16:18:53.007Z,100131.56
2023-05-18T16:21:20.315Z,100132.63
2023-05-18T16:23:47.477Z,100133.94
2023-05-18T16:26:14.825Z,100131.80
2023-05-18T16:28:41.876Z,100132.98
2023-05-18T16:31:11.264Z,100135.06
2023-05-18T16:33:38.654Z,100134.61
2023-05-18T16:36:06.694Z,100134.27
2023-05-18T16:38:36.129Z,100138.30
2023-05-18T16:41:05.829Z,100137.27
2023-05-18T16:43:33.663Z,100143.14
2023-05-18T16:46:00.881Z,100139.77
2023-05-18T16:48:28.051Z,100146.72
2023-05-18T16:50:55.110Z,100144.91
2023-05-18T16:53:22.211Z,100147.45
2023-05-18T16:55:49.747Z,100149.08
2023-05-18T16:58:16.805Z,100147.55
2023-05-18T17:00:43.937Z,100149.27
2023-05-18T17:03:11.336Z,100149.96
2023-05-18T17:05:38.512Z,100153.45
2023-05-18T17:08:05.613Z,100157.32
2023-05-18T17:10:35.672Z,100157.32
2023-05-18T17:13:03.018Z,100158.75
2023-05-18T17:15:33.081Z,100163.52
2023-05-18T17:18:00.911Z,100160.76
2023-05-18T17:20:28.095Z,100166.52
2023-05-18T17:22:55.540Z,100168.88
2023-05-18T17:25:23.216Z,100173.02
2023-05-18T17:27:50.549Z,100172.92
2023-05-18T17:30:17.694Z,100173.72
2023-05-18T17:32:45.794Z,100174.37
2023-05-18T17:35:14.419Z,100175.88
2023-05-18T17:37:41.789Z,100177.20
2023-05-18T17:40:10.509Z,100179.09
2023-05-18T17:42:37.620Z,100180.65
2023-05-18T17:45:04.986Z,100184.58
2023-05-18T17:47:32.169Z,100183.30
2023-05-18T17:49:59.544Z,100185.67
2023-05-18T17:52:26.665Z,100181.38
2023-05-18T17:54:53.806Z,100180.30
2023-05-18T17:57:23.132Z,100187.20
2023-05-18T17:59:50.351Z,100185.61
2023-05-18T18:02:17.513Z,100186.43
2023-05-18T18:04:44.558Z,100189.15
2023-05-18T18:07:11.674Z,100187.05
2023-05-18T18:09:38.844Z,100192.01
2023-05-18T18:12:06.135Z,100193.95
2023-05-18T18:14:33.248Z,100194.71
2023-05-18T18:17:00.450Z,100195.63
2023-05-18T18:19:27.576Z,100199.23
2023-05-18T18:21:54.740Z,100197.77
2023-05-18T18:24:23.685Z,100192.80
2023-05-18T18:26:52.768Z,100192.20
2023-05-18T18:29:20.102Z,100196.19
2023-05-18T18:31:47.321Z,100195.13
2023-05-18T18:34:14.440Z,100195.31
2023-05-18T18:36:42.205Z,100194.33
2023-05-18T18:39:09.271Z,100191.52
2023-05-18T18:41:36.422Z,100194.05
2023-05-18T18:44:03.517Z,100193.70
2023-05-18T18:46:30.652Z,100195.15
2023-05-18T18:48:57.741Z,100195.52
2023-05-18T18:51:24.918Z,100198.79
2023-05-18T18:53:52.140Z,100197.36
2023-05-18T18:56:20.771Z,100199.59
2023-05-18T18:58:48.872Z,100197.27
2023-05-18T19:01:16.072Z,100197.98
2023-05-18T19:03:43.396Z,100194.30
2023-05-18T19:06:11.598Z,100196.16
2023-05-18T19:08:38.682Z,100196.12
2023-05-18T19:11:05.876Z,100194.42
2023-05-18T19:13:32.937Z,100193.24
2023-05-18T19:16:00.375Z,100196.62
2023-05-18T19:18:27.972Z,100194.17
2023-05-18T19:20:55.118Z,100193.02
2023-05-18T19:23:22.151Z,100193.21
2023-05-18T19:25:49.197Z,100193.13
2023-05-18T19:28:16.400Z,100186.54
2023-05-18T19:30:43.569Z,100187.62
2023-05-18T19:33:10.954Z,100184.97
2023-05-18T19:35:38.248Z,100186.84
2023-05-18T19:38:05.374Z,100186.61
2023-05-18T19:40:32.479Z,100188.20
2023-05-18T19:43:00.019Z,100186.95
2023-05-18T19:45:27.393Z,100185.61
2023-05-18T19:47:54.832Z,100185.88
2023-05-18T19:50:22.067Z,100186.10
2023-05-18T19:52:49.684Z,100184.64
2023-05-18T19:55:17.764Z,100185.60
2023-05-18T19:57:44.816Z,100184.77
2023-05-18T20:00:12.243Z,100187.95
2023-05-18T20:02:42.079Z,100193.00
2023-05-18T20:05:12.849Z,100198.25
2023-05-18T20:07:40.127Z,100196.12
2023-05-18T20:10:07.764Z,100198.73
2023-05-18T20:12:34.869Z,100200.11
2023-05-18T20:15:02.035Z,100202.52
2023-05-18T20:17:29.268Z,100201.54
2023-05-18T20:19:56.440Z,100201.98
2023-05-18T20:22:23.550Z,100202.29
2023-05-18T20:24:50.733Z,100199.59
2023-05-18T20:27:17.832Z,100198.35
2023-05-18T20:29:45.571Z,100196.77
2023-05-18T20:32:12.770Z,100197.23
2023-05-18T20:34:41.528Z,100194.36
2023-05-18T20:37:10.874Z,100198.00
2023-05-18T20:39:40.082Z,100189.27
2023-05-18T20:42:07.700Z,100184.84
2023-05-18T20:44:35.191Z,100188.80
2023-05-18T20:47:02.818Z,100191.05
2023-05-18T20:49:30.760Z,100192.56
2023-05-18T20:51:57.960Z,100192.66
2023-05-18T20:54:25.180Z,100194.45
2023-05-18T20:56:52.335Z,100195.48
2023-05-18T20:59:19.658Z,100196.00
2023-05-18T21:01:46.803Z,100193.41
2023-05-18T21:04:14.957Z,100195.23
2023-05-18T21:06:44.300Z,100195.02
2023-05-18T21:09:12.181Z,100198.13
2023-05-18T21:11:39.944Z,100195.59
2023-05-18T21:14:07.018Z,100199.05
2023-05-18T21:16:34.684Z,100198.88
2023-05-18T21:19:01.968Z,100196.67
2023-05-18T21:21:29.313Z,100197.17
2023-05-18T21:23:56.490Z,100197.96
2023-05-18T21:26:23.632Z,100197.16
2023-05-18T21:28:51.001Z,100190.90
2023-05-18T21:31:18.220Z,100192.61
2023-05-18T21:33:48.506Z,100190.00
2023-05-18T21:36:16.109Z,100188.39
2023-05-18T21:38:43.263Z,100189.46
2023-05-18T21:41:10.474Z,100186.36
2023-05-18T21:43:37.677Z,100185.98
2023-05-18T21:46:05.935Z,100180.13
2023-05-18T21:48:34.952Z,100185.60
2023-05-18T21:51:04.051Z,100185.42
2023-05-18T21:53:31.138Z,100190.20
2023-05-18T21:55:58.281Z,100191.05
2023-05-18T21:58:25.702Z,100191.34
2023-05-18T22:00:52.910Z,100191.27
2023-05-18T22:03:20.021Z,100195.73
2023-05-18T22:05:47.400Z,100199.30
2023-05-18T22:08:14.482Z,100194.89
2023-05-18T22:10:41.833Z,100192.77
2023-05-18T22:13:09.616Z,100193.30
2023-05-18T22:15:37.499Z,100199.57
2023-05-18T22:18:04.912Z,100202.56
2023-05-18T22:20:32.966Z,100202.19
2023-05-18T22:23:00.470Z,100204.38
2023-05-18T22:25:27.704Z,100205.75
2023-05-18T22:27:55.140Z,100206.94
2023-05-18T22:30:24.129Z,100206.35
2023-05-18T22:32:51.350Z,100203.11
2023-05-18T22:35:18.621Z,100201.19
2023-05-18T22:37:46.572Z,100203.65
2023-05-18T22:40:13.886Z,100200.23
2023-05-18T22:42:41.082Z,100197.16
2023-05-18T22:45:10.184Z,100199.36
2023-05-18T22:47:39.207Z,100196.65
2023-05-18T22:50:07.689Z,100196.69
2023-05-18T22:52:35.108Z,100196.94
2023-05-18T22:55:02.483Z,100197.39
2023-05-18T22:57:29.675Z,100200.70
2023-05-18T22:59:56.849Z,100198.84
2023-05-18T23:02:23.866Z,100195.77
2023-05-18T23:04:51.611Z,100195.73
2023-05-18T23:07:19.579Z,100194.80
2023-05-18T23:09:46.677Z,100191.17
2023-05-18T23:12:13.829Z,100189.84
2023-05-18T23:14:40.885Z,100188.98
2023-05-18T23:17:07.934Z,100189.83
2023-05-18T23:19:36.475Z,100189.61
2023-05-18T23:22:04.024Z,100193.55
2023-05-18T23:24:31.223Z,100192.73
2023-05-18T23:26:58.626Z,100193.92
2023-05-18T23:29:25.826Z,100192.48
2023-05-18T23:31:52.904Z,100186.45
2023-05-18T23:34:20.173Z,100187.34
2023-05-18T23:36:53.733Z,100191.61
2023-05-18T23:39:22.480Z,100186.00
2023-05-18T23:41:52.250Z,100186.04
2023-05-18T23:44:19.676Z,100184.47
2023-05-18T23:46:47.123Z,100185.44
2023-05-18T23:49:14.508Z,100183.80
2023-05-18T23:51:43.006Z,100185.48
2023-05-18T23:54:10.757Z,100182.17
2023-05-18T23:56:38.102Z,100184.02
2023-05-18T23:59:06.983Z,100182.19
